createdAt,value
2018-09-25T00:02:23.510Z,3.73
2018-09-25T00:04:58.555Z,3.03
2018-09-25T00:07:33.208Z,3.20
2018-09-25T00:10:08.091Z,2.70
2018-09-25T00:12:43.627Z,2.20
2018-09-25T00:15:18.552Z,3.13
2018-09-25T00:17:53.450Z,2.80
2018-09-25T00:20:28.236Z,3.83
2018-09-25T00:23:02.997Z,2.83
2018-09-25T00:25:37.952Z,4.13
2018-09-25T00:28:12.782Z,2.80
2018-09-25T00:30:47.474Z,3.20
2018-09-25T00:33:22.402Z,2.63
2018-09-25T00:35:57.256Z,2.90
2018-09-25T00:38:32.060Z,3.30
2018-09-25T00:41:06.848Z,2.93
2018-09-25T00:43:41.740Z,2.80
2018-09-25T00:46:16.586Z,4.13
2018-09-25T00:48:51.476Z,3.33
2018-09-25T00:51:26.268Z,3.53
2018-09-25T00:54:01.458Z,3.20
2018-09-25T00:56:36.299Z,2.97
2018-09-25T00:59:11.301Z,3.07
2018-09-25T01:01:46.114Z,3.03
2018-09-25T01:04:20.781Z,3.20
2018-09-25T01:06:55.598Z,3.73
2018-09-25T01:09:30.600Z,4.47
2018-09-25T01:12:05.431Z,4.47
2018-09-25T01:14:40.106Z,3.20
2018-09-25T01:17:15.010Z,3.23
2018-09-25T01:19:50.023Z,3.30
2018-09-25T01:22:24.787Z,4.37
2018-09-25T01:24:59.646Z,3.30
2018-09-25T01:27:34.595Z,3.97
2018-09-25T01:30:09.578Z,4.00
2018-09-25T01:32:44.299Z,3.40
2018-09-25T01:35:20.237Z,2.73
2018-09-25T01:37:55.210Z,4.47
2018-09-25T01:40:29.975Z,4.40
2018-09-25T01:43:04.898Z,5.47
2018-09-25T01:45:39.692Z,3.90
2018-09-25T01:48:15.727Z,3.00
2018-09-25T01:50:50.479Z,4.50
2018-09-25T01:53:25.422Z,3.70
2018-09-25T01:56:00.485Z,5.07
2018-09-25T01:58:35.299Z,4.33
2018-09-25T02:01:10.258Z,5.30
2018-09-25T02:03:45.179Z,5.47
2018-09-25T02:06:20.154Z,5.80
2018-09-25T02:08:55.047Z,5.30
2018-09-25T02:11:29.789Z,5.90
2018-09-25T02:14:04.659Z,4.50
2018-09-25T02:16:39.609Z,4.80
2018-09-25T02:19:14.470Z,5.27
2018-09-25T02:21:49.243Z,6.40
2018-09-25T02:24:23.971Z,4.80
2018-09-25T02:26:58.972Z,3.60
2018-09-25T02:29:33.778Z,4.40
2018-09-25T02:32:08.706Z,3.60
2018-09-25T02:34:43.642Z,4.13
2018-09-25T02:37:18.586Z,4.40
2018-09-25T02:39:53.442Z,5.07
2018-09-25T02:42:28.239Z,5.47
2018-09-25T02:45:03.238Z,4.03
2018-09-25T02:47:38.199Z,3.03
2018-09-25T02:50:13.319Z,4.80
2018-09-25T02:52:48.304Z,3.43
2018-09-25T02:55:23.186Z,4.50
2018-09-25T02:57:57.989Z,3.27
2018-09-25T03:00:32.843Z,3.20
2018-09-25T03:03:07.534Z,2.60
2018-09-25T03:05:42.223Z,3.43
2018-09-25T03:08:17.228Z,2.93
2018-09-25T03:10:52.058Z,3.20
2018-09-25T03:13:27.888Z,2.80
2018-09-25T03:16:02.794Z,3.40
2018-09-25T03:18:37.907Z,4.40
2018-09-25T03:21:12.708Z,3.20
2018-09-25T03:23:50.607Z,3.07
2018-09-25T03:26:25.458Z,3.53
2018-09-25T03:29:00.231Z,3.57
2018-09-25T03:31:34.951Z,2.97
2018-09-25T03:34:09.902Z,3.30
2018-09-25T03:36:44.731Z,2.87
2018-09-25T03:39:19.661Z,3.97
2018-09-25T03:41:54.614Z,2.77
2018-09-25T03:44:29.508Z,2.40
2018-09-25T03:47:04.482Z,2.27
2018-09-25T03:49:39.513Z,3.73
2018-09-25T03:52:14.699Z,3.80
2018-09-25T03:54:49.455Z,3.50
2018-09-25T03:57:24.430Z,3.70
2018-09-25T03:59:59.077Z,3.53
2018-09-25T04:02:35.560Z,3.83
2018-09-25T04:05:10.511Z,3.73
2018-09-25T04:07:45.346Z,2.93
2018-09-25T04:10:20.144Z,5.43
2018-09-25T04:12:55.276Z,2.58
2018-09-25T04:15:30.141Z,3.27
2018-09-25T04:18:04.951Z,4.60
2018-09-25T04:20:39.926Z,3.17
2018-09-25T04:23:14.674Z,3.33
2018-09-25T04:25:49.578Z,3.80
2018-09-25T04:28:24.495Z,3.53
2018-09-25T04:30:59.281Z,3.03
2018-09-25T04:33:34.266Z,3.20
2018-09-25T04:36:09.039Z,3.30
2018-09-25T04:38:44.015Z,4.57
2018-09-25T04:41:18.893Z,7.90
2018-09-25T04:43:53.619Z,5.10
2018-09-25T04:46:28.623Z,7.30
2018-09-25T04:49:03.723Z,6.80
2018-09-25T04:51:38.354Z,8.50
2018-09-25T04:54:13.326Z,9.47
2018-09-25T04:56:48.096Z,9.57
2018-09-25T04:59:22.785Z,18.63
2018-09-25T05:01:57.637Z,27.43
2018-09-25T05:04:32.495Z,27.33
2018-09-25T05:07:07.526Z,22.43
2018-09-25T05:09:42.413Z,20.07
2018-09-25T05:12:17.331Z,23.50
2018-09-25T05:14:51.943Z,19.50
2018-09-25T05:17:26.940Z,20.23
2018-09-25T05:20:02.884Z,24.40
2018-09-25T05:22:38.006Z,22.87
2018-09-25T05:25:13.051Z,15.57
2018-09-25T05:27:47.850Z,19.70
2018-09-25T05:30:23.020Z,20.53
2018-09-25T05:32:57.770Z,14.27
2018-09-25T05:35:32.790Z,9.63
2018-09-25T05:38:07.772Z,7.60
2018-09-25T05:40:42.607Z,6.63
2018-09-25T05:43:18.346Z,6.07
2018-09-25T05:45:53.176Z,6.47
2018-09-25T05:48:28.105Z,4.50
2018-09-25T05:51:02.900Z,5.07
2018-09-25T05:53:37.883Z,6.10
2018-09-25T05:56:12.870Z,4.57
2018-09-25T05:58:47.858Z,3.67
2018-09-25T06:01:22.654Z,3.33
2018-09-25T06:03:57.391Z,3.10
2018-09-25T06:06:32.233Z,4.53
2018-09-25T06:09:07.099Z,3.87
2018-09-25T06:11:41.930Z,4.70
2018-09-25T06:14:16.766Z,4.10
2018-09-25T06:16:51.584Z,3.40
2018-09-25T06:19:26.446Z,3.07
2018-09-25T06:22:01.188Z,3.20
2018-09-25T06:24:36.150Z,3.93
2018-09-25T06:27:11.160Z,3.77
2018-09-25T06:29:46.168Z,4.53
2018-09-25T06:32:21.056Z,3.60
2018-09-25T06:34:55.797Z,3.83
2018-09-25T06:37:31.085Z,3.10
2018-09-25T06:40:06.066Z,2.87
2018-09-25T06:42:40.856Z,3.20
2018-09-25T06:45:15.774Z,3.13
2018-09-25T06:47:50.767Z,2.93
2018-09-25T06:50:25.663Z,2.23
2018-09-25T06:53:00.692Z,2.63
2018-09-25T06:55:35.465Z,2.43
2018-09-25T06:58:10.377Z,3.00
2018-09-25T07:00:45.222Z,2.70
2018-09-25T07:03:20.098Z,3.00
2018-09-25T07:05:55.060Z,3.23
2018-09-25T07:08:30.037Z,3.23
2018-09-25T07:11:04.991Z,4.33
2018-09-25T07:13:39.710Z,6.57
2018-09-25T07:16:14.606Z,3.47
2018-09-25T07:18:49.398Z,4.20
2018-09-25T07:21:24.172Z,2.77
2018-09-25T07:23:59.004Z,3.77
2018-09-25T07:26:33.803Z,4.00
2018-09-25T07:29:08.657Z,3.13
2018-09-25T07:31:43.686Z,4.27
2018-09-25T07:34:18.511Z,2.90
2018-09-25T07:36:53.359Z,3.10
2018-09-25T07:39:28.347Z,2.77
2018-09-25T07:42:03.283Z,3.47
2018-09-25T07:44:38.143Z,4.23
2018-09-25T07:47:12.890Z,3.37
2018-09-25T07:49:47.728Z,4.13
2018-09-25T07:52:22.566Z,4.40
2018-09-25T07:54:57.463Z,3.37
2018-09-25T07:57:32.159Z,3.53
2018-09-25T08:00:06.943Z,2.73
2018-09-25T08:02:41.683Z,3.40
2018-09-25T08:05:16.740Z,3.90
2018-09-25T08:07:51.390Z,4.30
2018-09-25T08:10:26.197Z,2.80
2018-09-25T08:13:00.964Z,2.87
2018-09-25T08:15:36.157Z,4.20
2018-09-25T08:18:11.469Z,3.53
2018-09-25T08:20:46.295Z,3.83
2018-09-25T08:23:21.148Z,3.40
2018-09-25T08:25:55.979Z,2.17
2018-09-25T08:28:31.462Z,4.00
2018-09-25T08:31:06.973Z,2.80
2018-09-25T08:33:42.218Z,2.10
2018-09-25T08:36:17.045Z,4.60
2018-09-25T08:38:51.921Z,3.90
2018-09-25T08:41:26.693Z,3.57
2018-09-25T08:44:01.254Z,2.60
2018-09-25T08:46:36.651Z,3.07
2018-09-25T08:49:11.738Z,4.80
2018-09-25T08:51:46.828Z,2.73
2018-09-25T08:54:21.951Z,2.07
2018-09-25T08:56:57.271Z,2.87
2018-09-25T08:59:32.091Z,1.73
2018-09-25T09:02:07.042Z,3.57
2018-09-25T09:04:41.922Z,1.87
2018-09-25T09:07:16.673Z,1.70
2018-09-25T09:09:51.419Z,1.70
2018-09-25T09:12:27.058Z,2.60
2018-09-25T09:15:02.128Z,3.87
2018-09-25T09:17:37.185Z,3.00
2018-09-25T09:20:12.265Z,5.50
2018-09-25T09:22:48.459Z,1.77
2018-09-25T09:25:23.291Z,1.93
2018-09-25T09:27:58.028Z,3.13
2018-09-25T09:30:32.806Z,2.50
2018-09-25T09:33:07.533Z,2.57
2018-09-25T09:35:42.308Z,1.90
2018-09-25T09:38:17.220Z,1.60
2018-09-25T09:40:52.121Z,4.57
2018-09-25T09:43:26.905Z,3.20
2018-09-25T09:46:01.896Z,4.23
2018-09-25T09:48:36.651Z,3.70
2018-09-25T09:51:11.873Z,2.10
2018-09-25T09:53:46.801Z,3.27
2018-09-25T09:56:21.762Z,2.07
2018-09-25T09:58:56.599Z,3.63
2018-09-25T10:01:31.399Z,4.13
2018-09-25T10:04:06.226Z,2.87
2018-09-25T10:06:41.249Z,2.93
2018-09-25T10:09:16.328Z,3.70
2018-09-25T10:11:51.200Z,1.37
2018-09-25T10:14:25.993Z,1.90
2018-09-25T10:17:00.839Z,1.63
2018-09-25T10:19:35.592Z,1.00
2018-09-25T10:22:10.491Z,2.00
2018-09-25T10:24:45.261Z,2.33
2018-09-25T10:27:20.299Z,3.13
2018-09-25T10:29:55.106Z,1.83
2018-09-25T10:32:29.983Z,3.70
2018-09-25T10:35:04.655Z,2.93
2018-09-25T10:37:39.666Z,2.17
2018-09-25T10:40:14.718Z,2.80
2018-09-25T10:42:49.534Z,2.40
2018-09-25T10:45:24.516Z,4.07
2018-09-25T10:47:59.338Z,2.73
2018-09-25T10:50:34.052Z,2.13
2018-09-25T10:53:08.870Z,2.50
2018-09-25T10:55:43.742Z,2.17
2018-09-25T10:58:18.560Z,2.23
2018-09-25T11:00:53.538Z,3.60
2018-09-25T11:03:28.556Z,1.80
2018-09-25T11:06:03.319Z,2.17
2018-09-25T11:08:37.914Z,2.90
2018-09-25T11:11:12.772Z,1.30
2018-09-25T11:13:47.647Z,3.53
2018-09-25T11:16:22.454Z,2.23
2018-09-25T11:18:57.491Z,2.63
2018-09-25T11:21:32.653Z,1.60
2018-09-25T11:24:07.482Z,2.10
2018-09-25T11:26:42.193Z,2.03
2018-09-25T11:29:16.921Z,4.10
2018-09-25T11:31:53.033Z,2.37
2018-09-25T11:34:27.826Z,2.60
2018-09-25T11:37:02.530Z,3.53
2018-09-25T11:39:37.358Z,3.30
2018-09-25T11:42:12.314Z,1.20
2018-09-25T11:44:47.133Z,2.10
2018-09-25T11:47:22.099Z,2.87
2018-09-25T11:49:57.168Z,4.30
2018-09-25T11:52:32.214Z,1.97
2018-09-25T11:55:07.215Z,1.93
2018-09-25T11:57:41.966Z,2.60
2018-09-25T12:00:16.904Z,4.17
2018-09-25T12:02:51.704Z,3.70
2018-09-25T12:05:26.965Z,2.10
2018-09-25T12:08:01.858Z,4.50
2018-09-25T12:10:37.139Z,3.70
2018-09-25T12:13:12.435Z,2.37
2018-09-25T12:15:47.795Z,4.07
2018-09-25T12:18:23.122Z,4.10
2018-09-25T12:20:58.215Z,1.70
2018-09-25T12:23:33.155Z,4.57
2018-09-25T12:26:08.200Z,2.87
2018-09-25T12:28:43.323Z,1.37
2018-09-25T12:31:18.238Z,2.03
2018-09-25T12:33:53.444Z,2.90
2018-09-25T12:36:28.748Z,1.70
2018-09-25T12:39:04.425Z,2.00
2018-09-25T12:41:39.444Z,1.30
2018-09-25T12:44:14.548Z,2.40
2018-09-25T12:46:49.759Z,5.53
2018-09-25T12:49:24.474Z,1.83
2018-09-25T12:51:59.302Z,1.80
2018-09-25T12:54:34.128Z,1.63
2018-09-25T12:57:08.987Z,2.80
2018-09-25T12:59:43.989Z,1.20
2018-09-25T13:02:19.075Z,2.87
2018-09-25T13:04:54.172Z,2.03
2018-09-25T13:07:29.006Z,1.50
2018-09-25T13:10:03.804Z,1.93
2018-09-25T13:12:38.688Z,2.03
2018-09-25T13:15:13.682Z,1.77
2018-09-25T13:17:48.671Z,2.63
2018-09-25T13:20:23.616Z,1.30
2018-09-25T13:22:58.411Z,3.03
2018-09-25T13:25:33.221Z,1.67
2018-09-25T13:28:08.048Z,1.17
2018-09-25T13:30:42.883Z,2.17
2018-09-25T13:33:17.690Z,2.73
2018-09-25T13:35:52.524Z,1.00
2018-09-25T13:38:27.303Z,1.63
2018-09-25T13:41:01.978Z,1.30
2018-09-25T13:43:36.901Z,3.00
2018-09-25T13:46:11.832Z,0.80
2018-09-25T13:48:46.715Z,2.90
2018-09-25T13:51:21.720Z,1.90
2018-09-25T13:53:56.532Z,2.73
2018-09-25T13:56:31.331Z,1.70
2018-09-25T13:59:06.295Z,1.67
2018-09-25T14:01:41.106Z,1.30
2018-09-25T14:04:23.195Z,1.17
2018-09-25T14:06:57.891Z,2.98
2018-09-25T14:09:34.020Z,2.52
2018-09-25T14:12:11.518Z,2.50
2018-09-25T14:14:46.394Z,1.63
2018-09-25T14:17:21.183Z,4.50
2018-09-25T14:19:55.987Z,1.70
2018-09-25T14:22:30.791Z,1.33
2018-09-25T14:25:05.509Z,0.97
2018-09-25T14:27:40.426Z,1.43
2018-09-25T14:30:15.483Z,2.60
2018-09-25T14:32:50.382Z,2.80
2018-09-25T14:35:25.264Z,3.40
2018-09-25T14:38:00.184Z,1.93
2018-09-25T14:40:35.144Z,2.80
2018-09-25T14:43:10.022Z,1.13
2018-09-25T14:45:45.057Z,2.50
2018-09-25T14:48:19.971Z,1.47
2018-09-25T14:50:54.980Z,1.80
2018-09-25T14:53:29.975Z,2.33
2018-09-25T14:56:04.633Z,1.53
2018-09-25T14:58:41.664Z,2.50
2018-09-25T15:01:17.451Z,2.90
2018-09-25T15:03:52.251Z,2.33
2018-09-25T15:06:27.142Z,1.10
2018-09-25T15:09:03.484Z,1.20
2018-09-25T15:11:38.366Z,2.40
2018-09-25T15:14:14.130Z,4.17
2018-09-25T15:16:48.986Z,1.33
2018-09-25T15:19:25.104Z,2.60
2018-09-25T15:22:00.014Z,2.33
2018-09-25T15:24:34.734Z,1.90
2018-09-25T15:27:09.570Z,2.03
2018-09-25T15:29:44.367Z,2.13
2018-09-25T15:32:19.429Z,2.90
2018-09-25T15:34:54.202Z,1.00
2018-09-25T15:37:28.988Z,3.17
2018-09-25T15:40:03.744Z,1.83
2018-09-25T15:42:38.631Z,1.40
2018-09-25T15:45:13.385Z,1.30
2018-09-25T15:47:48.201Z,1.97
2018-09-25T15:50:23.119Z,2.10
2018-09-25T15:52:58.116Z,1.07
2018-09-25T15:55:33.185Z,2.47
2018-09-25T15:58:08.130Z,2.20
2018-09-25T16:00:43.995Z,2.30
2018-09-25T16:03:18.783Z,7.87
2018-09-25T16:05:53.616Z,2.43
2018-09-25T16:08:28.417Z,2.37
2018-09-25T16:11:03.270Z,1.80
2018-09-25T16:13:38.305Z,3.77
2018-09-25T16:16:13.138Z,2.70
2018-09-25T16:18:48.121Z,1.87
2018-09-25T16:21:22.936Z,1.40
2018-09-25T16:23:57.763Z,2.50
2018-09-25T16:26:32.725Z,1.77
2018-09-25T16:29:07.752Z,3.67
2018-09-25T16:31:42.542Z,1.43
2018-09-25T16:34:17.327Z,2.57
2018-09-25T16:36:53.408Z,1.00
2018-09-25T16:39:28.250Z,1.77
2018-09-25T16:42:03.029Z,1.93
2018-09-25T16:44:37.885Z,3.90
2018-09-25T16:47:12.626Z,2.10
2018-09-25T16:49:47.231Z,2.37
2018-09-25T16:52:22.163Z,4.10
2018-09-25T16:54:56.928Z,2.00
2018-09-25T16:57:32.181Z,1.63
2018-09-25T17:00:07.048Z,2.77
2018-09-25T17:02:41.807Z,2.70
2018-09-25T17:05:16.797Z,2.13
2018-09-25T17:07:51.616Z,2.50
2018-09-25T17:10:26.595Z,2.40
2018-09-25T17:13:01.410Z,1.23
2018-09-25T17:15:36.586Z,1.53
2018-09-25T17:18:11.749Z,2.10
2018-09-25T17:20:46.499Z,2.10
2018-09-25T17:23:21.366Z,2.27
2018-09-25T17:25:56.283Z,2.30
2018-09-25T17:28:31.153Z,3.00
2018-09-25T17:31:05.889Z,1.67
2018-09-25T17:33:40.700Z,2.00
2018-09-25T17:36:15.530Z,1.03
2018-09-25T17:38:52.039Z,2.70
2018-09-25T17:41:27.167Z,4.20
2018-09-25T17:44:02.034Z,3.40
2018-09-25T17:46:37.022Z,2.10
2018-09-25T17:49:13.345Z,3.07
2018-09-25T17:51:48.272Z,3.50
2018-09-25T17:54:23.083Z,2.70
2018-09-25T17:57:00.148Z,1.20
2018-09-25T17:59:35.167Z,3.07
2018-09-25T18:02:10.152Z,1.90
2018-09-25T18:04:44.948Z,2.37
2018-09-25T18:07:19.699Z,2.80
2018-09-25T18:09:54.458Z,3.70
2018-09-25T18:12:29.355Z,3.67
2018-09-25T18:15:04.127Z,2.10
2018-09-25T18:17:38.896Z,3.20
2018-09-25T18:20:13.817Z,1.80
2018-09-25T18:22:48.616Z,2.17
2018-09-25T18:25:23.206Z,2.50
2018-09-25T18:27:58.096Z,3.37
2018-09-25T18:30:33.046Z,2.23
2018-09-25T18:33:08.050Z,2.00
2018-09-25T18:35:42.895Z,3.13
2018-09-25T18:38:17.691Z,2.80
2018-09-25T18:40:52.490Z,1.17
2018-09-25T18:43:27.516Z,1.97
2018-09-25T18:46:02.331Z,3.57
2018-09-25T18:48:37.063Z,2.07
2018-09-25T18:51:11.935Z,2.90
2018-09-25T18:53:46.910Z,1.60
2018-09-25T18:56:21.810Z,2.67
2018-09-25T18:58:56.540Z,5.10
2018-09-25T19:01:31.323Z,2.20
2018-09-25T19:04:06.383Z,2.87
2018-09-25T19:06:41.193Z,2.03
2018-09-25T19:09:16.144Z,5.97
2018-09-25T19:11:51.075Z,3.83
2018-09-25T19:14:25.690Z,3.67
2018-09-25T19:17:00.571Z,1.43
2018-09-25T19:19:35.339Z,1.93
2018-09-25T19:22:10.403Z,2.37
2018-09-25T19:24:45.132Z,3.33
2018-09-25T19:27:19.974Z,2.07
2018-09-25T19:29:54.867Z,3.80
2018-09-25T19:32:29.719Z,2.53
2018-09-25T19:35:04.510Z,2.50
2018-09-25T19:37:39.373Z,2.70
2018-09-25T19:40:14.358Z,3.07
2018-09-25T19:42:49.201Z,4.10
2018-09-25T19:45:24.039Z,3.20
2018-09-25T19:47:58.935Z,1.90
2018-09-25T19:50:34.078Z,3.40
2018-09-25T19:53:08.822Z,1.60
2018-09-25T19:55:43.782Z,2.83
2018-09-25T19:58:18.673Z,3.17
2018-09-25T20:00:54.322Z,2.53
2018-09-25T20:03:29.303Z,4.20
2018-09-25T20:06:04.242Z,3.80
2018-09-25T20:08:39.027Z,9.23
2018-09-25T20:11:13.797Z,7.90
2018-09-25T20:13:48.884Z,11.30
2018-09-25T20:16:23.915Z,8.17
2018-09-25T20:18:58.584Z,5.03
2018-09-25T20:21:33.431Z,3.83
2018-09-25T20:24:08.212Z,2.40
2018-09-25T20:26:43.036Z,2.13
2018-09-25T20:29:17.938Z,3.30
2018-09-25T20:31:52.908Z,2.10
2018-09-25T20:34:27.705Z,1.67
2018-09-25T20:37:02.608Z,4.30
2018-09-25T20:39:37.279Z,5.93
2018-09-25T20:42:12.342Z,4.90
2018-09-25T20:44:47.167Z,2.37
2018-09-25T20:47:21.978Z,5.93
2018-09-25T20:49:56.766Z,3.20
2018-09-25T20:52:31.475Z,2.83
2018-09-25T20:55:06.483Z,5.23
2018-09-25T20:57:41.443Z,3.80
2018-09-25T21:00:16.371Z,3.90
2018-09-25T21:02:51.916Z,4.40
2018-09-25T21:05:26.715Z,2.80
2018-09-25T21:08:01.387Z,3.03
2018-09-25T21:10:37.354Z,3.40
2018-09-25T21:13:12.391Z,4.73
2018-09-25T21:15:47.225Z,3.63
2018-09-25T21:18:22.141Z,2.90
2018-09-25T21:20:57.020Z,3.50
2018-09-25T21:23:31.991Z,3.73
2018-09-25T21:26:06.817Z,4.90
2018-09-25T21:28:41.643Z,5.43
2018-09-25T21:31:16.366Z,6.47
2018-09-25T21:33:51.191Z,6.20
2018-09-25T21:36:26.018Z,6.67
2018-09-25T21:39:01.348Z,2.60
2018-09-25T21:41:36.308Z,3.20
2018-09-25T21:44:11.203Z,4.90
2018-09-25T21:46:46.131Z,5.57
2018-09-25T21:49:20.959Z,3.10
2018-09-25T21:51:55.731Z,3.53
2018-09-25T21:54:30.553Z,2.40
2018-09-25T21:57:05.603Z,3.20
2018-09-25T21:59:40.385Z,4.63
2018-09-25T22:02:15.420Z,3.10
2018-09-25T22:04:50.184Z,2.10
2018-09-25T22:07:25.048Z,3.77
2018-09-25T22:09:59.935Z,2.90
2018-09-25T22:12:35.609Z,3.50
2018-09-25T22:15:10.432Z,3.00
2018-09-25T22:17:45.192Z,5.47
2018-09-25T22:20:20.106Z,2.70
2018-09-25T22:22:55.814Z,2.43
2018-09-25T22:25:30.612Z,2.87
2018-09-25T22:28:05.523Z,2.73
2018-09-25T22:30:40.453Z,3.20
2018-09-25T22:33:15.385Z,2.97
2018-09-25T22:35:50.242Z,3.20
2018-09-25T22:38:25.002Z,4.87
2018-09-25T22:40:59.770Z,3.23
2018-09-25T22:43:34.571Z,2.20
2018-09-25T22:46:09.395Z,3.40
2018-09-25T22:48:44.151Z,3.10
2018-09-25T22:51:19.052Z,3.80
2018-09-25T22:53:53.913Z,2.73
2018-09-25T22:56:28.765Z,3.70
2018-09-25T22:59:03.571Z,2.90
2018-09-25T23:01:38.599Z,6.23
2018-09-25T23:04:13.587Z,2.97
2018-09-25T23:06:48.427Z,2.20
2018-09-25T23:09:23.542Z,2.50
2018-09-25T23:11:58.602Z,4.60
2018-09-25T23:14:34.089Z,4.03
2018-09-25T23:17:08.891Z,2.43
2018-09-25T23:19:43.790Z,3.37
2018-09-25T23:22:18.720Z,2.40
2018-09-25T23:24:53.727Z,2.73
2018-09-25T23:27:28.499Z,4.03
2018-09-25T23:30:03.419Z,3.83
2018-09-25T23:32:38.290Z,3.63
2018-09-25T23:35:13.170Z,4.37
2018-09-25T23:37:47.753Z,2.43
2018-09-25T23:40:42.530Z,3.97
2018-09-25T23:43:17.502Z,4.30
2018-09-25T23:45:51.512Z,4.27
2018-09-25T23:48:25.851Z,3.67
2018-09-25T23:53:07.471Z,3.90
2018-09-25T23:56:43.176Z,3.93
2018-09-25T23:59:19.320Z,2.37
